Relevés horaires Bierset (Belgique)


Relevés horaires à Bierset - Mardi 10 Juill. 2018
Heure UTC1 Température [°C] Vent [km/h] Hum. [%] Pres.4 [hPa] Visi. [Km] Nébu. [octa] Préc.5 [mm] Cond.
2m. Res. Ros. Dir.2 Vit. Moy. Raf.3
23:00 13.7 13.7 13.0 ONO 5.6 5.6 9.3 96 1018.4(0.5/3h) 5 4/8 -- --
22:00 14.3 14.3 13.4 ONO 5.6 9.3 14.8 94 1018.4(0.6/3h) 6 5/8 -- --
21:00 15.0 15 13.7 ONO 7.4 11.1 14.8 92 1018.1(0.3/3h) 7 8/8 -- --
20:00 14.9 14.6 13.4 ONO 9.3 11.1 14.8 91 1017.7(-0.3/3h) 10 8/8 -- --
19:00 15.0 14.7 13.4 O 9.3 11.1 16.7 90 1017.7(-0.4/3h) 10 8/8 -- --
18:00 15.0 14.5 13.3 O 11.1 13.0 18.5 90 1017.8(-0.6/3h) 8 8/8 0/12h
--
17:00 14.9 14.6 13.0 ONO 9.3 11.1 18.5 88 1018(-1.1/3h) 12 8/8 -- --
16:00 15.1 14.8 12.6 O 9.3 11.1 18.5 85 1018.2(-1.3/3h) 30 8/8 -- --
15:00 15.8 15.4 11.3 ONO 11.1 13.0 18.5 75 1018.4(-1.0/3h) 30 8/8 -- --
14:00 15.3 14.8 10.7 ONO 11.1 13.0 16.7 74 1019.1(-0.4/3h) 30 8/8 -- --
13:00 15.5 15.3 9.3 ONO 9.3 9.3 14.8 67 1019.5(0.1/3h) 30 8/8 -- --
12:00 16.2 16.2 8.8 ONO 7.4 9.3 14.8 62 1019.4(-0.4/3h) 30 8/8 0/6h
--
11:00 16.0 16.0 8.2 NO 7.4 9.3 13.0 60 1019.5(-0.6/3h) 30 8/8 -- --
10:00 15.7 15.7 7.4 NO 7.4 9.3 13.0 58 1019.6(-0.8/3h) 30 8/8 -- --
09:00 15.1 14.8 8.2 NO 9.3 9.3 13.0 63 1019.9(-0.6/3h) 30 8/8 -- --
08:00 14.4 14.3 8.7 NO 7.4 7.4 13.0 69 1020.3(-0.4/3h) 30 8/8 -- --
07:00 14.0 14.0 9.1 NNO 5.6 7.4 11.1 72 1020.5(-0.4/3h) 30 8/8 -- --
06:00 13.6 13.3 9.3 NNO 7.4 9.3 16.7 75 1020.7(0.2/3h) 40 8/8 0/12h
--
05:00 13.6 13.6 9.5 NNO 5.6 5.6 9.3 76 1020.9(-0.5/3h) 40 7/8 -- --
04:00 13.6 13.6 9.8 NNO 3.7 5.6 9.3 78 1020.9(-0.4/3h) 40 7/8 -- --
03:00 13.9 13.9 9.9 NNO 5.6 9.3 16.7 77 1020.8(-0.6/3h) 45 7/8 -- --
02:00 14.3 14.2 9.5 NNO 7.4 9.3 16.7 73 1021.3(-0.3/3h) 45 7/8 -- --
01:00 14.9 14.6 10.5 N 9.3 9.3 14.8 75 1021.3(-0.3/3h) 25 7/8 -- --
00:00 16.2 16.2 12.9 N 7.4 9.3 13.0 81 1021.2(-0.6/3h) 20 7/8 0/6h
0/24h
--

1 Coordinated Universal Time. Actuellement il est 09:00 locale et 07:00 UTC.

2 Le vent souffle depuis la direction indiquée vers la direction oposée.

3 Les rafales max. sont disponible 40 min après l'heure du relevé.

4 Pour les stations d'altitude (plus de 600m) le géopotentiel du niveau le plus proche de la pression obligatoire est indiqué.

5 Les stations disposant d'un diffuseur peuvent indiquer "trace". Cela signifie que des précipitations ont touchés le sol mais que la quantité est inférieure à 0.1 mm.

Récapitulatif de la journée
Température [°C] Vent [km/h] Ensoleillement4 [h] Precipitations totale5 [mm] Pression [Hpa]
Min1 Max.2 Moy.3 Max. Min Max.
13.3 16.4 9.5 18.5 0 h 0 min 0 1017.7 1021.3

1 Température minimale relevée entre 18:00 UTC la veille et 18:00 UTC le jour donné.

2 Température maximale relevée entre 06:00 UTC le jour donné et 06:00 UTC le lendemain.

3 Vent moyen de la journée basé sur les relevés horaires.

4 Ensoleillement en heures relevé entre 06:00 UTC la veille et 06:00 UTC le jour donné.

5 Précipitations totales tombées entre 06:00 UTC la jour donné et 06:00 UTC le lendemain.

Graphiques horaires